Terminal Aerodrome Forecast
Issued by NWS

Home | Current Version | Previous Version | Text Only | Print | Product List | Glossary On
Versions: 1 2 3 4 5 6 7 8 9 10 11 12 13 14 15 16
000
FTUS42 KTBW 160500
TAFRSW
TAF
KRSW 160536Z 1606/1706 07003KT P6SM SCT050 BKN150
     FM161500 30004KT P6SM SCT035 BKN250
     FM162100 35007KT P6SM VCTS SCT035CB BKN250
     FM170400 31005KT P6SM SCT035 BKN200=

USA.gov is the U.S. government's official web portal to all federal, state and local government web resources and services.